createdAt,value
2019-01-16T00:00:28.225Z,36.55
2019-01-16T00:01:28.180Z,36.27
2019-01-16T00:02:28.135Z,36.75
2019-01-16T00:03:28.092Z,36.65
2019-01-16T00:04:28.048Z,36.65
2019-01-16T00:05:28.005Z,36.65
2019-01-16T00:06:27.960Z,36.65
2019-01-16T00:07:27.916Z,36.55
2019-01-16T00:08:27.872Z,36.46
2019-01-16T00:09:27.822Z,36.75
2019-01-16T00:10:27.783Z,36.65
2019-01-16T00:11:27.740Z,36.46
2019-01-16T00:12:27.696Z,36.55
2019-01-16T00:13:27.653Z,36.46
2019-01-16T00:14:27.606Z,36.65
2019-01-16T00:15:27.563Z,36.65
2019-01-16T00:16:27.522Z,36.55
2019-01-16T00:17:27.489Z,36.27
2019-01-16T00:18:27.521Z,36.27
2019-01-16T00:19:27.461Z,36.46
2019-01-16T00:20:27.349Z,36.36
2019-01-16T00:21:27.298Z,36.36
2019-01-16T00:22:27.254Z,36.36
2019-01-16T00:23:27.210Z,36.36
2019-01-16T00:24:27.166Z,36.36
2019-01-16T00:25:27.120Z,36.55
2019-01-16T00:26:27.079Z,36.44
2019-01-16T00:27:27.033Z,36.36
2019-01-16T00:28:26.989Z,36.55
2019-01-16T00:29:26.944Z,36.35
2019-01-16T00:30:26.899Z,36.54
2019-01-16T00:31:26.857Z,36.44
2019-01-16T00:32:26.812Z,36.65
2019-01-16T00:33:26.769Z,36.54
2019-01-16T00:34:26.722Z,36.63
2019-01-16T00:35:26.679Z,36.54
2019-01-16T00:36:26.638Z,36.44
2019-01-16T00:37:26.590Z,36.63
2019-01-16T00:38:26.546Z,36.63
2019-01-16T00:39:26.503Z,36.63
2019-01-16T00:40:26.458Z,36.44
2019-01-16T00:41:26.413Z,36.25
2019-01-16T00:42:26.369Z,36.44
2019-01-16T00:43:26.326Z,36.44
2019-01-16T00:44:26.282Z,36.35
2019-01-16T00:45:26.237Z,36.35
2019-01-16T00:46:26.185Z,36.44
2019-01-16T00:47:26.148Z,36.25
2019-01-16T00:48:26.098Z,36.44
2019-01-16T00:49:26.059Z,36.25
2019-01-16T00:50:26.016Z,36.44
2019-01-16T00:51:25.972Z,36.83
2019-01-16T00:52:25.923Z,36.15
2019-01-16T00:53:25.882Z,36.25
2019-01-16T00:54:25.838Z,36.83
2019-01-16T00:55:25.794Z,36.93
2019-01-16T00:56:25.745Z,36.93
2019-01-16T00:57:25.705Z,36.35
2019-01-16T00:58:25.660Z,36.83
2019-01-16T00:59:25.693Z,36.35
2019-01-16T01:00:25.577Z,36.83
2019-01-16T01:01:25.529Z,36.73
2019-01-16T01:02:25.482Z,37.02
2019-01-16T01:03:25.439Z,36.93
2019-01-16T01:04:25.395Z,36.73
2019-01-16T01:05:25.351Z,36.73
2019-01-16T01:06:25.302Z,36.54
2019-01-16T01:07:25.261Z,36.63
2019-01-16T01:08:25.218Z,36.63
2019-01-16T01:09:25.172Z,36.63
2019-01-16T01:10:25.134Z,36.71
2019-01-16T01:11:25.090Z,36.63
2019-01-16T01:12:25.038Z,36.54
2019-01-16T01:13:24.997Z,36.71
2019-01-16T01:14:24.962Z,36.54
2019-01-16T01:15:24.912Z,36.52
2019-01-16T01:16:24.860Z,36.61
2019-01-16T01:17:24.818Z,36.61
2019-01-16T01:18:32.020Z,36.71
2019-01-16T01:19:24.731Z,36.81
2019-01-16T01:20:24.684Z,36.52
2019-01-16T01:21:24.643Z,36.61
2019-01-16T01:22:24.596Z,36.43
2019-01-16T01:23:24.554Z,36.71
2019-01-16T01:24:24.509Z,37.01
2019-01-16T01:25:24.470Z,36.61
2019-01-16T01:26:24.419Z,36.61
2019-01-16T01:27:24.380Z,37.19
2019-01-16T01:28:24.330Z,36.52
2019-01-16T01:29:24.287Z,37.19
2019-01-16T01:30:24.241Z,37.10
2019-01-16T01:31:24.198Z,37.01
2019-01-16T01:32:24.154Z,37.10
2019-01-16T01:33:24.115Z,37.10
2019-01-16T01:34:24.063Z,36.81
2019-01-16T01:35:24.037Z,37.01
2019-01-16T01:36:23.976Z,36.91
2019-01-16T01:37:23.931Z,36.91
2019-01-16T01:38:23.886Z,36.81
2019-01-16T01:39:23.841Z,36.91
2019-01-16T01:40:23.798Z,36.91
2019-01-16T01:41:23.752Z,36.61
2019-01-16T01:42:23.708Z,36.81
2019-01-16T01:43:23.663Z,36.91
2019-01-16T01:44:23.619Z,37.01
2019-01-16T01:45:23.573Z,37.01
2019-01-16T01:46:23.530Z,37.01
2019-01-16T01:47:23.485Z,37.01
2019-01-16T01:48:23.441Z,36.81
2019-01-16T01:49:23.405Z,36.71
2019-01-16T01:50:23.352Z,36.81
2019-01-16T01:51:23.307Z,37.10
2019-01-16T01:52:23.264Z,37.10
2019-01-16T01:53:23.221Z,37.19
2019-01-16T01:54:23.205Z,37.19
2019-01-16T01:55:23.128Z,36.81
2019-01-16T01:56:23.112Z,37.19
2019-01-16T01:57:23.040Z,37.29
2019-01-16T01:58:22.994Z,37.10
2019-01-16T01:59:22.951Z,37.37
2019-01-16T02:00:22.906Z,37.37
2019-01-16T02:01:22.863Z,37.29
2019-01-16T02:02:22.828Z,37.39
2019-01-16T02:03:22.774Z,37.29
2019-01-16T02:04:22.762Z,37.18
2019-01-16T02:05:22.686Z,37.18
2019-01-16T02:06:22.641Z,36.91
2019-01-16T02:07:22.597Z,37.27
2019-01-16T02:08:22.553Z,36.81
2019-01-16T02:09:22.506Z,37.37
2019-01-16T02:10:22.465Z,36.99
2019-01-16T02:11:22.414Z,37.56
2019-01-16T02:12:22.377Z,37.46
2019-01-16T02:13:22.332Z,37.37
2019-01-16T02:14:22.281Z,37.37
2019-01-16T02:15:22.239Z,37.27
2019-01-16T02:16:22.193Z,37.46
2019-01-16T02:17:22.149Z,37.46
2019-01-16T02:18:22.104Z,36.79
2019-01-16T02:19:22.061Z,37.37
2019-01-16T02:20:22.015Z,37.37
2019-01-16T02:21:21.972Z,37.27
2019-01-16T02:22:21.943Z,37.37
2019-01-16T02:23:21.883Z,37.46
2019-01-16T02:24:21.837Z,37.27
2019-01-16T02:25:21.790Z,37.27
2019-01-16T02:26:21.745Z,37.37
2019-01-16T02:27:21.703Z,37.37
2019-01-16T02:28:21.658Z,37.37
2019-01-16T02:29:21.612Z,37.27
2019-01-16T02:30:21.571Z,37.27
2019-01-16T02:31:21.556Z,37.08
2019-01-16T02:32:21.479Z,37.18
2019-01-16T02:33:21.436Z,36.99
2019-01-16T02:34:21.389Z,36.99
2019-01-16T02:35:21.346Z,37.08
2019-01-16T02:36:21.305Z,37.08
2019-01-16T02:37:21.255Z,37.18
2019-01-16T02:38:21.211Z,37.08
2019-01-16T02:39:21.167Z,37.08
2019-01-16T02:40:21.122Z,37.37
2019-01-16T02:41:21.073Z,37.18
2019-01-16T02:42:21.032Z,37.46
2019-01-16T02:43:20.985Z,37.66
2019-01-16T02:44:20.942Z,37.56
2019-01-16T02:45:20.897Z,37.56
2019-01-16T02:46:20.854Z,37.37
2019-01-16T02:47:20.806Z,37.66
2019-01-16T02:48:20.767Z,37.56
2019-01-16T02:49:20.718Z,37.46
2019-01-16T02:50:20.677Z,37.66
2019-01-16T02:51:20.630Z,37.56
2019-01-16T02:52:20.587Z,37.56
2019-01-16T02:53:20.538Z,37.76
2019-01-16T02:54:20.497Z,37.66
2019-01-16T02:55:20.449Z,37.66
2019-01-16T02:56:20.405Z,37.76
2019-01-16T02:57:20.357Z,37.66
2019-01-16T02:58:20.316Z,38.04
2019-01-16T02:59:20.270Z,37.66
2019-01-16T03:00:20.225Z,38.04
2019-01-16T03:01:20.181Z,37.93
2019-01-16T03:02:20.137Z,37.93
2019-01-16T03:03:20.092Z,37.93
2019-01-16T03:04:20.047Z,37.85
2019-01-16T03:05:20.005Z,37.74
2019-01-16T03:06:19.958Z,38.22
2019-01-16T03:07:20.049Z,38.12
2019-01-16T03:08:19.867Z,38.04
2019-01-16T03:09:19.827Z,38.02
2019-01-16T03:10:19.777Z,38.02
2019-01-16T03:11:19.732Z,37.93
2019-01-16T03:12:19.688Z,38.22
2019-01-16T03:13:19.643Z,38.04
2019-01-16T04:03:13.656Z,38.99
2019-01-16T04:04:13.594Z,38.99
2019-01-16T04:06:06.821Z,39.09
2019-01-16T04:07:06.741Z,38.99
2019-01-16T04:08:59.530Z,38.81
2019-01-16T04:09:59.476Z,38.91
2019-01-16T04:11:52.758Z,39.20
2019-01-16T04:12:52.663Z,39.01
2019-01-16T04:14:45.900Z,39.39
2019-01-16T04:15:45.848Z,39.49
2019-01-16T04:17:38.658Z,39.01
2019-01-16T04:18:38.587Z,39.39
2019-01-16T04:20:31.812Z,39.39
2019-01-16T04:21:31.761Z,39.39
2019-01-16T04:23:25.017Z,39.11
2019-01-16T04:24:24.942Z,39.20
2019-01-16T04:26:18.176Z,39.01
2019-01-16T04:27:18.121Z,39.39
2019-01-16T04:29:11.398Z,39.01
2019-01-16T04:30:11.301Z,39.39
2019-01-16T04:32:04.127Z,39.11
2019-01-16T04:33:04.052Z,39.29
2019-01-16T04:34:57.301Z,39.01
2019-01-16T04:35:57.235Z,39.20
2019-01-16T04:37:50.548Z,39.31
2019-01-16T04:38:50.496Z,39.12
2019-01-16T04:40:43.724Z,39.22
2019-01-16T04:41:43.676Z,39.03
2019-01-16T04:43:36.927Z,38.93
2019-01-16T04:44:36.856Z,39.03
2019-01-16T04:46:30.098Z,39.03
2019-01-16T04:47:30.068Z,38.74
2019-01-16T04:49:30.130Z,38.83
2019-01-16T04:50:23.225Z,38.93
2019-01-16T04:52:16.439Z,38.93
2019-01-16T04:53:16.391Z,38.95
2019-01-16T04:55:09.203Z,38.95
2019-01-16T04:56:09.146Z,39.04
2019-01-16T04:58:02.380Z,38.95
2019-01-16T04:59:02.308Z,38.85
2019-01-16T05:00:55.102Z,38.95
2019-01-16T05:01:55.053Z,38.85
2019-01-16T05:03:48.301Z,38.95
2019-01-16T05:04:48.225Z,38.85
2019-01-16T05:06:41.504Z,38.85
2019-01-16T05:07:41.458Z,38.85
2019-01-16T05:09:34.753Z,39.04
2019-01-16T05:10:34.634Z,38.95
2019-01-16T05:11:34.591Z,39.04
2019-01-16T05:12:34.549Z,38.95
2019-01-16T05:13:34.500Z,38.85
2019-01-16T05:14:34.455Z,39.04
2019-01-16T05:15:34.410Z,38.46
2019-01-16T05:16:34.366Z,38.85
2019-01-16T05:17:34.323Z,38.85
2019-01-16T05:18:34.278Z,38.95
2019-01-16T05:19:38.704Z,39.04
2019-01-16T05:20:34.196Z,38.46
2019-01-16T05:21:34.143Z,39.14
2019-01-16T05:22:34.103Z,38.46
2019-01-16T05:23:34.054Z,38.46
2019-01-16T05:24:34.011Z,38.37
2019-01-16T05:25:33.968Z,38.28
2019-01-16T05:26:33.921Z,38.37
2019-01-16T05:27:33.879Z,38.20
2019-01-16T05:28:33.837Z,38.37
2019-01-16T05:29:33.792Z,38.18
2019-01-16T05:30:33.746Z,38.08
2019-01-16T05:31:35.614Z,38.18
2019-01-16T05:32:33.654Z,38.20
2019-01-16T05:33:33.650Z,38.28
2019-01-16T05:34:33.568Z,38.18
2019-01-16T05:35:33.520Z,38.18
2019-01-16T05:36:33.477Z,38.18
2019-01-16T05:37:33.434Z,38.18
2019-01-16T05:38:33.399Z,38.08
2019-01-16T05:39:33.348Z,38.18
2019-01-16T05:40:33.300Z,38.08
2019-01-16T05:41:33.319Z,38.37
2019-01-16T05:42:33.214Z,38.10
2019-01-16T05:43:33.168Z,38.08
2019-01-16T05:44:33.125Z,37.89
2019-01-16T05:45:33.087Z,37.91
2019-01-16T05:46:33.039Z,37.89
2019-01-16T05:47:32.996Z,37.71
2019-01-16T05:48:32.950Z,37.98
2019-01-16T05:49:32.905Z,37.91
2019-01-16T05:50:32.863Z,37.91
2019-01-16T05:51:32.825Z,37.89
2019-01-16T05:52:32.776Z,38.01
2019-01-16T05:53:32.722Z,37.81
2019-01-16T05:54:32.686Z,37.91
2019-01-16T05:55:32.633Z,37.71
2019-01-16T05:56:32.600Z,37.91
2019-01-16T05:57:32.547Z,37.81
2019-01-16T05:58:32.508Z,37.91
2019-01-16T05:59:32.458Z,38.01
2019-01-16T06:00:32.415Z,38.01
2019-01-16T06:01:32.378Z,37.91
2019-01-16T06:02:32.329Z,37.91
2019-01-16T06:03:32.282Z,37.91
2019-01-16T06:04:32.233Z,37.91
2019-01-16T06:05:32.190Z,37.91
2019-01-16T06:06:32.148Z,37.81
2019-01-16T06:07:32.106Z,37.91
2019-01-16T06:08:32.069Z,37.71
2019-01-16T06:09:32.016Z,38.10
2019-01-16T06:10:31.976Z,37.81
2019-01-16T06:11:31.926Z,38.10
2019-01-16T06:12:31.883Z,38.10
2019-01-16T06:13:31.837Z,37.81
2019-01-16T06:14:31.795Z,38.29
2019-01-16T06:15:31.749Z,38.01
2019-01-16T06:16:31.704Z,37.81
2019-01-16T06:17:31.659Z,37.91
2019-01-16T06:18:31.618Z,38.10
2019-01-16T06:19:31.573Z,37.91
2019-01-16T06:20:31.528Z,38.01
2019-01-16T06:21:31.485Z,37.81
2019-01-16T06:22:31.440Z,37.91
2019-01-16T06:23:31.398Z,37.52
2019-01-16T06:24:31.351Z,37.91
2019-01-16T06:25:31.307Z,38.10
2019-01-16T06:26:31.270Z,38.10
2019-01-16T06:27:32.491Z,37.71
2019-01-16T06:28:31.174Z,37.62
2019-01-16T06:29:31.153Z,37.91
2019-01-16T06:30:31.087Z,38.10
2019-01-16T06:31:31.041Z,37.91
2019-01-16T06:32:30.998Z,38.20
2019-01-16T06:33:30.993Z,37.62
2019-01-16T06:34:30.913Z,37.71
2019-01-16T06:35:30.868Z,38.10
2019-01-16T06:36:30.841Z,37.81
2019-01-16T06:37:30.785Z,38.01
2019-01-16T06:38:30.733Z,37.71
2019-01-16T06:39:30.687Z,38.01
2019-01-16T06:40:30.644Z,38.10
2019-01-16T06:41:30.601Z,38.10
2019-01-16T06:42:30.557Z,38.01
2019-01-16T06:43:30.511Z,38.10
2019-01-16T06:44:30.892Z,37.91
2019-01-16T06:45:30.423Z,38.10
2019-01-16T06:46:30.378Z,38.10
2019-01-16T06:47:30.333Z,38.01
2019-01-16T06:48:30.291Z,38.29
2019-01-16T06:49:30.246Z,38.10
2019-01-16T06:50:30.203Z,38.01
2019-01-16T06:51:30.157Z,37.71
2019-01-16T06:52:30.116Z,38.10
2019-01-16T06:53:30.071Z,38.10
2019-01-16T06:54:30.027Z,38.01
2019-01-16T06:55:29.980Z,37.71
2019-01-16T06:56:29.937Z,37.81
2019-01-16T06:57:29.895Z,38.20
2019-01-16T06:58:29.849Z,37.91
2019-01-16T06:59:29.805Z,37.91
2019-01-16T07:00:29.759Z,38.20
2019-01-16T07:01:29.711Z,37.52
2019-01-16T07:02:29.672Z,37.81
2019-01-16T07:03:29.688Z,37.62
2019-01-16T07:04:29.584Z,37.81
2019-01-16T07:05:29.535Z,37.81
2019-01-16T07:06:29.497Z,37.71
2019-01-16T07:07:29.448Z,38.29
2019-01-16T07:08:29.410Z,38.01
2019-01-16T07:09:29.358Z,38.29
2019-01-16T07:10:29.322Z,37.91
2019-01-16T07:11:29.273Z,37.81
2019-01-16T07:12:29.231Z,37.71
2019-01-16T07:13:29.186Z,37.91
2019-01-16T07:14:29.146Z,38.29
2019-01-16T07:15:29.100Z,37.81
2019-01-16T07:16:29.054Z,37.81
2019-01-16T07:17:29.011Z,37.81
2019-01-16T07:18:28.970Z,37.71
2019-01-16T07:19:28.918Z,37.71
2019-01-16T07:20:28.876Z,37.71
2019-01-16T07:21:28.834Z,37.62
2019-01-16T07:22:28.796Z,38.01
2019-01-16T07:23:28.740Z,37.91
2019-01-16T07:24:28.704Z,37.71
2019-01-16T07:25:28.654Z,37.71
2019-01-16T07:26:28.613Z,37.71
2019-01-16T07:27:28.566Z,37.91
2019-01-16T07:28:28.523Z,38.01
2019-01-16T07:29:28.479Z,38.10
2019-01-16T07:30:28.436Z,37.71
2019-01-16T07:31:28.389Z,38.20
2019-01-16T07:32:28.349Z,38.10
2019-01-16T07:33:28.318Z,38.01
2019-01-16T07:34:28.262Z,38.10
2019-01-16T07:35:28.222Z,37.81
2019-01-16T07:36:28.172Z,37.71
2019-01-16T07:37:28.131Z,37.71
2019-01-16T07:38:28.083Z,37.71
2019-01-16T07:39:28.037Z,38.10
2019-01-16T07:40:28.001Z,37.81
2019-01-16T07:41:27.949Z,38.01
2019-01-16T07:42:27.912Z,37.71
2019-01-16T07:43:27.861Z,37.91
2019-01-16T07:44:27.818Z,38.01
2019-01-16T07:45:27.776Z,38.01
2019-01-16T07:46:27.730Z,38.02
2019-01-16T07:47:27.683Z,38.02
2019-01-16T07:48:27.642Z,37.91
2019-01-16T07:49:27.598Z,38.02
2019-01-16T07:50:27.556Z,37.91
2019-01-16T07:51:27.507Z,38.02
2019-01-16T07:52:27.467Z,37.93
2019-01-16T07:53:27.420Z,37.93
2019-01-16T07:54:27.380Z,38.12
2019-01-16T07:55:27.337Z,38.12
2019-01-16T07:56:27.290Z,38.02
2019-01-16T07:57:27.247Z,38.12
2019-01-16T07:58:27.207Z,37.63
2019-01-16T07:59:27.158Z,37.93
2019-01-16T08:00:27.117Z,37.93
2019-01-16T08:01:27.070Z,37.73
2019-01-16T08:02:27.047Z,37.93
2019-01-16T08:03:26.980Z,37.93
2019-01-16T08:04:26.939Z,37.93
2019-01-16T08:05:26.892Z,37.93
2019-01-16T08:06:26.853Z,37.81
2019-01-16T08:07:26.804Z,38.12
2019-01-16T08:08:26.766Z,37.83
2019-01-16T08:09:26.716Z,38.02
2019-01-16T08:10:26.674Z,38.21
2019-01-16T09:41:46.307Z,39.54
2019-01-16T09:42:46.231Z,39.72
2019-01-16T09:44:39.425Z,39.62
2019-01-16T09:45:39.376Z,39.43
2019-01-16T09:47:32.174Z,39.91
2019-01-16T09:48:32.096Z,39.94
2019-01-16T09:50:24.898Z,39.91
2019-01-16T09:51:24.847Z,39.91
2019-01-16T09:53:18.090Z,39.53
2019-01-16T09:54:18.014Z,39.34
2019-01-16T09:56:11.228Z,39.64
2019-01-16T09:57:11.177Z,39.43
2019-01-16T09:59:04.410Z,39.84
2019-01-16T10:00:04.335Z,39.45
2019-01-16T10:01:58.139Z,39.16
2019-01-16T10:02:58.055Z,39.16
2019-01-16T10:04:51.024Z,39.26
2019-01-16T10:05:50.799Z,39.06
2019-01-16T10:07:43.821Z,39.16
2019-01-16T10:08:43.738Z,39.16
2019-01-16T10:10:36.538Z,39.06
2019-01-16T10:11:36.476Z,39.26
2019-01-16T10:13:29.334Z,38.97
2019-01-16T10:14:29.264Z,38.87
2019-01-16T10:16:22.505Z,38.87
2019-01-16T10:17:22.469Z,38.97
2019-01-16T10:19:15.696Z,38.87
2019-01-16T10:20:15.628Z,38.97
2019-01-16T10:22:09.185Z,38.87
2019-01-16T10:23:09.117Z,38.97
2019-01-16T10:25:01.917Z,38.97
2019-01-16T10:26:01.861Z,38.39
2019-01-16T10:27:55.103Z,39.06
2019-01-16T10:28:55.028Z,38.87
2019-01-16T10:30:48.245Z,38.49
2019-01-16T10:31:48.197Z,38.20
2019-01-16T10:33:41.064Z,38.49
2019-01-16T10:34:40.992Z,38.39
2019-01-16T10:36:33.790Z,38.39
2019-01-16T10:37:33.713Z,38.39
2019-01-16T10:39:26.528Z,38.20
2019-01-16T10:40:26.473Z,38.02
2019-01-16T10:42:19.688Z,38.39
2019-01-16T10:43:19.637Z,38.41
2019-01-16T10:45:12.880Z,38.12
2019-01-16T10:46:12.815Z,38.41
2019-01-16T10:48:06.127Z,38.41
2019-01-16T10:49:06.055Z,38.39
2019-01-16T10:51:03.155Z,38.41
2019-01-16T10:51:59.235Z,38.12
2019-01-16T10:53:52.057Z,38.12
2019-01-16T10:54:51.983Z,38.12
2019-01-16T10:56:45.790Z,38.21
2019-01-16T10:57:45.719Z,38.21
2019-01-16T10:59:38.539Z,38.31
2019-01-16T11:00:38.459Z,38.21
2019-01-16T11:02:31.265Z,38.31
2019-01-16T11:03:31.217Z,38.21
2019-01-16T11:05:24.035Z,38.51
2019-01-16T11:06:23.968Z,38.70
2019-01-16T11:08:17.330Z,39.09
2019-01-16T11:09:17.279Z,39.09
2019-01-16T11:11:16.076Z,39.09
2019-01-16T11:12:10.452Z,38.60
2019-01-16T11:14:03.747Z,38.60
2019-01-16T11:15:03.681Z,38.51
2019-01-16T11:16:57.001Z,38.99
2019-01-16T11:17:56.865Z,38.79
2019-01-16T11:19:50.166Z,38.79
2019-01-16T11:20:50.099Z,39.09
2019-01-16T11:22:43.339Z,39.09
2019-01-16T11:23:43.289Z,38.99
2019-01-16T11:25:36.572Z,39.09
2019-01-16T11:26:36.505Z,39.09
2019-01-16T11:28:29.743Z,38.21
2019-01-16T11:29:29.674Z,38.41
2019-01-16T11:31:22.468Z,38.51
2019-01-16T11:32:22.441Z,38.12
2019-01-16T11:34:15.238Z,38.31
2019-01-16T11:35:15.190Z,38.31
2019-01-16T11:37:08.428Z,38.31
2019-01-16T11:38:08.376Z,38.41
2019-01-16T11:40:04.919Z,38.51
2019-01-16T11:41:01.623Z,38.31
2019-01-16T11:42:54.875Z,38.41
2019-01-16T11:43:54.822Z,38.31
2019-01-16T11:45:48.100Z,38.21
2019-01-16T11:46:48.029Z,38.41
2019-01-16T11:48:40.869Z,38.31
2019-01-16T11:49:40.792Z,39.09
2019-01-16T11:51:34.040Z,38.99
2019-01-16T11:52:33.996Z,38.89
2019-01-16T11:54:27.273Z,38.21
2019-01-16T11:55:27.201Z,38.31
2019-01-16T11:57:20.453Z,38.21
2019-01-16T11:58:20.407Z,37.93
2019-01-16T12:00:13.666Z,37.93
2019-01-16T12:01:13.623Z,38.12
2019-01-16T12:03:06.887Z,38.12
2019-01-16T12:04:06.854Z,38.41
2019-01-16T12:06:00.084Z,37.93
2019-01-16T12:07:00.012Z,37.73
2019-01-16T12:08:52.818Z,38.21
2019-01-16T12:09:52.784Z,38.21
2019-01-16T12:11:46.028Z,37.83
2019-01-16T12:12:45.960Z,38.02
2019-01-16T12:14:39.210Z,37.93
2019-01-16T12:15:39.138Z,37.93
2019-01-16T12:17:32.393Z,37.93
2019-01-16T12:18:32.348Z,37.83
2019-01-16T12:20:25.618Z,37.93
2019-01-16T12:21:26.589Z,38.02
2019-01-16T12:23:18.352Z,37.93
2019-01-16T12:24:18.349Z,37.93
2019-01-16T12:26:11.574Z,37.93
2019-01-16T12:27:11.511Z,37.93
2019-01-16T12:29:04.735Z,37.83
2019-01-16T12:30:04.690Z,38.02
2019-01-16T12:31:57.956Z,38.12
2019-01-16T12:32:57.879Z,38.21
2019-01-16T12:34:51.151Z,38.31
2019-01-16T12:35:51.098Z,38.02
2019-01-16T12:37:44.328Z,37.83
2019-01-16T12:38:44.285Z,37.93
2019-01-16T12:40:37.539Z,37.35
2019-01-16T12:41:37.479Z,37.83
2019-01-16T12:43:30.278Z,37.83
2019-01-16T12:44:30.240Z,38.02
2019-01-16T12:46:23.050Z,38.12
2019-01-16T12:47:22.984Z,38.12
2019-01-16T12:49:16.224Z,38.21
2019-01-16T12:50:16.173Z,38.02
2019-01-16T12:52:09.439Z,38.31
2019-01-16T12:53:09.372Z,38.21
2019-01-16T12:55:02.194Z,38.31
2019-01-16T12:56:02.135Z,37.93
2019-01-16T12:57:55.368Z,37.93
2019-01-16T12:58:55.337Z,38.02
2019-01-16T13:00:48.603Z,37.83
2019-01-16T13:01:48.508Z,36.19
2019-01-16T13:03:42.018Z,36.19
2019-01-16T13:04:41.710Z,35.80
2019-01-16T13:06:34.980Z,36.57
2019-01-16T13:07:34.929Z,37.35
2019-01-16T13:09:27.719Z,36.46
2019-01-16T13:10:27.668Z,36.19
2019-01-16T13:12:20.495Z,35.80
2019-01-16T13:13:20.413Z,35.80
2019-01-16T13:15:13.217Z,36.29
2019-01-16T13:16:13.172Z,36.27
2019-01-16T13:18:06.434Z,36.67
2019-01-16T13:19:06.363Z,36.19
2019-01-16T13:20:59.630Z,37.45
2019-01-16T13:21:59.565Z,37.25
2019-01-16T13:23:52.802Z,37.45
2019-01-16T13:24:52.755Z,37.45
2019-01-16T13:26:46.098Z,33.07
2019-01-16T13:27:46.010Z,32.28
2019-01-16T13:29:38.812Z,33.50
2019-01-16T13:30:38.764Z,34.25
2019-01-16T13:32:31.585Z,36.18
2019-01-16T13:33:31.512Z,36.87
2019-01-16T13:35:24.327Z,37.35
2019-01-16T13:36:24.265Z,37.93
2019-01-16T13:38:17.080Z,37.56
2019-01-16T13:39:17.010Z,37.85
2019-01-16T13:41:09.832Z,38.06
2019-01-16T13:42:09.760Z,37.77
2019-01-16T13:44:03.015Z,35.06
2019-01-16T13:45:02.969Z,33.03
2019-01-16T13:46:56.247Z,34.86
2019-01-16T13:47:56.173Z,35.44
2019-01-16T13:49:49.500Z,36.51
2019-01-16T13:50:49.391Z,36.89
2019-01-16T13:52:42.212Z,37.29
2019-01-16T13:53:42.141Z,37.19
2019-01-16T13:55:34.954Z,37.10
2019-01-16T13:56:34.903Z,37.10
2019-01-16T13:58:27.722Z,37.41
2019-01-16T13:59:27.648Z,37.41
2019-01-16T14:01:20.470Z,37.41
2019-01-16T14:02:20.403Z,37.41
2019-01-16T14:04:13.204Z,36.83
2019-01-16T14:05:13.151Z,37.12
2019-01-16T14:07:06.179Z,37.13
2019-01-16T14:08:06.112Z,36.83
2019-01-16T14:09:59.384Z,37.04
2019-01-16T14:10:59.324Z,36.65
2019-01-16T14:12:52.616Z,35.10
2019-01-16T14:13:52.552Z,32.49
2019-01-16T14:15:45.820Z,31.88
2019-01-16T14:16:45.762Z,31.78
2019-01-16T14:18:39.054Z,32.54
2019-01-16T14:19:38.984Z,32.62
2019-01-16T14:21:31.795Z,32.60
2019-01-16T14:22:31.744Z,32.68
2019-01-16T14:24:25.553Z,33.07
2019-01-16T14:25:25.484Z,33.16
2019-01-16T14:27:18.332Z,33.44
2019-01-16T14:28:18.249Z,33.91
2019-01-16T14:30:11.046Z,34.01
2019-01-16T14:31:10.997Z,33.99
2019-01-16T14:33:03.815Z,34.38
2019-01-16T14:34:03.742Z,34.47
2019-01-16T14:35:57.003Z,34.75
2019-01-16T14:36:56.952Z,34.84
2019-01-16T14:38:50.210Z,35.03
2019-01-16T14:39:50.143Z,35.22
2019-01-16T14:41:43.397Z,34.75
2019-01-16T14:42:43.349Z,34.94
2019-01-16T14:44:36.642Z,35.11
2019-01-16T14:45:36.570Z,35.11
2019-01-16T14:47:29.893Z,35.21
2019-01-16T14:48:29.821Z,35.21
2019-01-16T14:50:23.063Z,35.30
2019-01-16T14:51:23.013Z,35.21
2019-01-16T14:53:15.823Z,35.69
2019-01-16T14:54:15.759Z,35.69
2019-01-16T14:56:08.985Z,35.59
2019-01-16T14:57:08.943Z,35.88
2019-01-16T14:59:01.764Z,36.07
2019-01-16T15:00:01.707Z,36.15
2019-01-16T15:01:01.653Z,36.34
2019-01-16T15:02:01.610Z,36.36
2019-01-16T15:03:01.562Z,36.26
2019-01-16T15:04:01.519Z,36.18
2019-01-16T15:05:01.470Z,36.66
2019-01-16T15:06:01.426Z,36.18
2019-01-16T15:07:01.382Z,36.40
2019-01-16T15:08:01.335Z,36.40
2019-01-16T15:09:01.289Z,36.01
2019-01-16T15:10:01.252Z,36.13
2019-01-16T15:11:01.199Z,36.60
2019-01-16T15:12:01.153Z,36.51
2019-01-16T15:13:01.109Z,36.72
2019-01-16T15:14:01.063Z,36.91
2019-01-16T15:15:01.018Z,37.10
2019-01-16T15:16:00.973Z,37.10
2019-01-16T15:17:00.924Z,37.22
2019-01-16T15:18:00.881Z,37.22
2019-01-16T15:19:00.835Z,36.93
2019-01-16T15:20:00.789Z,37.12
2019-01-16T15:21:00.746Z,37.60
2019-01-16T15:22:06.144Z,37.51
2019-01-16T15:23:00.659Z,37.52
2019-01-16T15:24:00.607Z,37.72
2019-01-16T15:25:00.562Z,37.72
2019-01-16T15:26:00.518Z,37.91
2019-01-16T15:27:00.468Z,37.52
2019-01-16T15:28:00.422Z,37.74
2019-01-16T15:29:00.380Z,37.74
2019-01-16T15:30:00.336Z,37.54
2019-01-16T15:31:00.289Z,37.45
2019-01-16T15:32:00.244Z,37.54
2019-01-16T15:33:00.198Z,37.16
2019-01-16T15:34:00.153Z,37.35
2019-01-16T15:35:00.108Z,36.19
2019-01-16T15:36:00.058Z,36.39
2019-01-16T15:37:00.019Z,36.97
2019-01-16T15:37:59.972Z,37.45
2019-01-16T15:38:59.928Z,37.27
2019-01-16T15:39:59.880Z,37.27
2019-01-16T15:40:59.895Z,37.18
2019-01-16T15:41:59.792Z,37.27
2019-01-16T15:42:59.766Z,37.08
2019-01-16T15:43:59.702Z,37.08
2019-01-16T15:44:59.660Z,37.27
2019-01-16T15:45:59.614Z,37.01
2019-01-16T15:46:59.582Z,37.85
2019-01-16T15:47:59.522Z,37.19
2019-01-16T15:48:59.479Z,37.39
2019-01-16T15:49:59.431Z,37.39
2019-01-16T15:50:59.389Z,37.37
2019-01-16T15:51:59.343Z,37.39
2019-01-16T15:52:59.298Z,37.29
2019-01-16T15:53:59.251Z,37.39
2019-01-16T15:54:59.209Z,37.29
2019-01-16T15:55:59.161Z,36.71
2019-01-16T15:56:59.120Z,37.39
2019-01-16T15:57:59.075Z,36.81
2019-01-16T15:58:59.030Z,37.29
2019-01-16T15:59:58.986Z,37.39
2019-01-16T16:00:58.940Z,37.39
2019-01-16T16:01:58.898Z,37.01
2019-01-16T16:02:58.852Z,37.19
2019-01-16T16:03:58.809Z,37.21
2019-01-16T16:04:58.759Z,37.39
2019-01-16T16:05:58.719Z,37.02
2019-01-16T16:06:58.674Z,37.41
2019-01-16T16:07:59.009Z,37.31
2019-01-16T16:08:58.595Z,37.41
2019-01-16T16:09:58.540Z,37.50
2019-01-16T16:10:58.496Z,37.31
2019-01-16T16:11:58.451Z,37.41
2019-01-16T16:13:00.189Z,36.93
2019-01-16T16:14:00.215Z,37.41
2019-01-16T16:14:59.727Z,37.50
2019-01-16T16:15:59.149Z,37.50
2019-01-16T16:16:58.232Z,37.41
2019-01-16T16:17:58.188Z,36.83
2019-01-16T16:18:58.171Z,37.31
2019-01-16T16:19:58.094Z,36.93
2019-01-16T16:20:58.049Z,37.50
2019-01-16T16:21:58.007Z,36.83
2019-01-16T16:22:57.962Z,37.50
2019-01-16T16:23:57.916Z,37.60
2019-01-16T16:24:57.882Z,36.73
2019-01-16T16:25:57.830Z,37.41
2019-01-16T16:26:57.784Z,37.50
2019-01-16T16:27:57.739Z,37.41
2019-01-16T16:28:57.695Z,37.33
2019-01-16T16:29:57.651Z,37.41
2019-01-16T16:30:57.612Z,36.83
2019-01-16T16:31:57.561Z,37.41
2019-01-16T16:32:57.548Z,37.31
2019-01-16T16:33:57.473Z,37.41
2019-01-16T16:34:57.430Z,37.50
2019-01-16T16:35:57.386Z,37.43
2019-01-16T16:36:57.343Z,37.33
2019-01-16T16:37:57.296Z,37.43
2019-01-16T16:38:57.253Z,36.46
2019-01-16T16:39:57.208Z,37.43
2019-01-16T16:40:57.164Z,37.04
2019-01-16T16:41:57.119Z,37.13
2019-01-16T16:42:57.078Z,37.13
2019-01-16T16:43:57.031Z,37.33
2019-01-16T16:44:56.987Z,36.85
2019-01-16T16:45:56.943Z,37.43
2019-01-16T16:46:56.899Z,36.75
2019-01-16T16:47:56.854Z,37.23
2019-01-16T16:48:56.809Z,37.43
2019-01-16T16:49:56.769Z,36.46
2019-01-16T16:50:56.722Z,37.52
2019-01-16T16:51:56.679Z,36.65
2019-01-16T16:52:56.632Z,37.43
2019-01-16T16:53:56.591Z,37.33
2019-01-16T16:54:56.546Z,37.43
2019-01-16T16:55:56.503Z,36.55
2019-01-16T16:56:56.454Z,36.85
2019-01-16T16:57:56.412Z,37.43
2019-01-16T16:58:57.649Z,36.85
2019-01-16T16:59:56.324Z,37.13
2019-01-16T17:00:56.284Z,36.75
2019-01-16T17:01:56.235Z,37.13
2019-01-16T17:02:56.192Z,37.23
2019-01-16T17:03:56.148Z,36.85
2019-01-16T17:04:56.103Z,36.65
2019-01-16T17:05:56.059Z,36.75
2019-01-16T17:06:56.049Z,36.75
2019-01-16T17:07:55.972Z,36.65
2019-01-16T17:08:55.926Z,36.65